Destiny — ZCTE3 — position and weather

sailwx.info

Track history (hours):
 
Tides and Currents Weather Stations Pressure Air Temp Water Temp Dewpoint Dewpoint Depression Visibility Wind Speed Wind Dir Waves Ship Positions

Destiny

Last reported at 2016-Jul-26 09:32 UTC. Time now 2016-Jul-30 11:06 UTC.
Position N 42°24' E 008°32'.

Length 37 m; draft 2.2 m.

Type: Pleasure craft. MMSI: 319864000.

Date/timePositionNaut miles runAvg speedWind from/ knotsBaromVisibWave heightAir tempDewpointWater temp
2016-Jul-26 09:32N 42°24' E 008°32'1413.9
2016-Jul-26 08:33N 42°35' E 008°42'45 2.7
2016-Jul-25 15:34N 43°09' E 008°01'2322.5
2016-Jul-25 14:33N 43°25' E 007°40'2221.9
2016-Jul-25 13:33N 43°41' E 007°19'1 0.7
2016-Jul-25 12:17N 43°42' E 007°19'0 0.0
2016-Jul-25 11:30N 43°42' E 007°19'1110.7
2016-Jul-25 10:30N 43°35' E 007°08'0 0.0
2016-Jul-25 09:30N 43°35' E 007°08'0 0.0
2016-Jul-25 08:30N 43°35' E 007°08'0 0.0
2016-Jul-25 07:24N 43°35' E 007°08'0 0.0
2016-Jul-25 06:30N 43°35' E 007°08'0 0.0
2016-Jul-25 05:24N 43°35' E 007°08'0 0.0
2016-Jul-25 04:30N 43°35' E 007°08'0 0.0
2016-Jul-25 03:30N 43°35' E 007°08'0 0.0
2016-Jul-25 02:30N 43°35' E 007°08'0 0.0
2016-Jul-25 01:30N 43°35' E 007°08'0 0.0
2016-Jul-25 00:30N 43°35' E 007°08'0 0.0
2016-Jul-24 23:30N 43°35' E 007°08'0 0.0
2016-Jul-24 22:30N 43°35' E 007°08'0 0.0
2016-Jul-24 21:30N 43°35' E 007°08'0 0.0
2016-Jul-24 20:30N 43°35' E 007°08'0 0.0
2016-Jul-24 19:30N 43°35' E 007°08'0 0.0
2016-Jul-24 18:30N 43°35' E 007°08'0 0.0
2016-Jul-24 17:30N 43°35' E 007°08'0 0.0
2016-Jul-24 16:30N 43°35' E 007°08'0 0.0
2016-Jul-24 15:30N 43°35' E 007°08'0 0.0
2016-Jul-24 14:30N 43°35' E 007°08'0 0.0
2016-Jul-24 13:24N 43°35' E 007°08'0 0.0
2016-Jul-24 12:30N 43°35' E 007°08'0 0.0
2016-Jul-24 11:18N 43°35' E 007°08'0 0.0
2016-Jul-24 10:30N 43°35' E 007°08'0 0.0
2016-Jul-24 09:24N 43°35' E 007°08'0 0.0
2016-Jul-24 08:30N 43°35' E 007°08'0 0.0
2016-Jul-24 07:24N 43°35' E 007°08'0 0.0
2016-Jul-24 06:30N 43°35' E 007°08'0 0.0
2016-Jul-24 05:30N 43°35' E 007°08'0 0.0
2016-Jul-24 04:30N 43°35' E 007°08'0 0.0
2016-Jul-24 03:30N 43°35' E 007°08'0 0.0
2016-Jul-24 02:30N 43°35' E 007°08'0 0.0
2016-Jul-24 01:30N 43°35' E 007°08'0 0.0
2016-Jul-24 00:30N 43°35' E 007°08'0 0.0
2016-Jul-23 23:30N 43°35' E 007°08'0 0.0
2016-Jul-23 22:30N 43°35' E 007°08'0 0.0
2016-Jul-23 21:30N 43°35' E 007°08'0 0.0
2016-Jul-23 20:30N 43°35' E 007°08'0 0.0
2016-Jul-23 19:24N 43°35' E 007°08'0 0.0
2016-Jul-23 18:30N 43°35' E 007°08'0 0.0
2016-Jul-23 17:30N 43°35' E 007°08'0 0.0
2016-Jul-23 16:33N 43°35' E 007°08'1110.5
2016-Jul-23 15:34N 43°42' E 007°19'0 0.1
2016-Jul-23 13:33N 43°42' E 007°19'0 0.0
2016-Jul-23 11:33N 43°42' E 007°19'0 0.1
2016-Jul-23 10:33N 43°42' E 007°19'0 0.0
2016-Jul-23 09:21N 43°42' E 007°19'0 0.0
2016-Jul-23 08:09N 43°42' E 007°19'0 0.0
2016-Jul-23 07:21N 43°42' E 007°19'0 0.0
2016-Jul-23 06:33N 43°42' E 007°19'0 0.0
2016-Jul-23 04:21N 43°42' E 007°19'0 0.0
2016-Jul-23 02:27N 43°42' E 007°19'0 0.0
2016-Jul-23 01:15N 43°42' E 007°19'0 0.0
2016-Jul-23 00:27N 43°42' E 007°19'0 0.0
2016-Jul-22 23:15N 43°42' E 007°19'0 0.0
2016-Jul-22 22:33N 43°42' E 007°19'0 0.0
2016-Jul-22 20:21N 43°42' E 007°19'0 0.0
2016-Jul-22 19:03N 43°42' E 007°19'0 0.0
2016-Jul-22 18:33N 43°42' E 007°19'0 0.0
2016-Jul-22 17:34N 43°42' E 007°19'1413.8
2016-Jul-22 16:33N 43°31' E 007°07'26 1.5
2016-Jul-21 23:32N 43°16' E 006°38'0 0.0
2016-Jul-21 22:20N 43°16' E 006°38'0 0.0
2016-Jul-21 21:08N 43°16' E 006°38'3 0.3
2016-Jul-21 11:24N 43°14' E 006°40'24 1.3
2016-Jul-20 16:33N 43°30' E 007°04'1010.1
2016-Jul-20 15:33N 43°39' E 007°10'8 8.1
2016-Jul-20 14:32N 43°43' E 007°21'0 0.0
2016-Jul-20 13:33N 43°43' E 007°21'0 0.0
2016-Jul-20 12:33N 43°43' E 007°21'0 0.0
2016-Jul-20 11:33N 43°43' E 007°21'6 5.9
2016-Jul-20 10:33N 43°38' E 007°15'6 5.7
2016-Jul-20 09:30N 43°35' E 007°08'0 0.0
2016-Jul-20 08:12N 43°35' E 007°08'0 0.0
2016-Jul-20 07:30N 43°35' E 007°08'0 0.0
2016-Jul-20 06:30N 43°35' E 007°08'0 0.0
2016-Jul-20 05:24N 43°35' E 007°08'0 0.0
2016-Jul-20 04:30N 43°35' E 007°08'0 0.0
2016-Jul-20 03:30N 43°35' E 007°08'0 0.0
2016-Jul-20 02:33N 43°35' E 007°08'0 0.0
2016-Jul-20 01:30N 43°35' E 007°08'0 0.0
2016-Jul-20 00:30N 43°35' E 007°08'0 0.0
2016-Jul-19 23:33N 43°35' E 007°08'0 0.0
2016-Jul-19 22:30N 43°35' E 007°08'0 0.0
2016-Jul-19 21:33N 43°35' E 007°08'0 0.0
2016-Jul-19 20:24N 43°35' E 007°08'0 0.0
2016-Jul-19 19:30N 43°35' E 007°08'0 0.0
2016-Jul-19 18:30N 43°35' E 007°08'0 0.0
2016-Jul-19 17:30N 43°35' E 007°08'0 0.0
2016-Jul-19 16:30N 43°35' E 007°08'0 0.0
2016-Jul-19 15:30N 43°35' E 007°08'0 0.0
2016-Jul-19 14:30N 43°35' E 007°08'0 0.0
2016-Jul-19 13:30N 43°35' E 007°08'0 0.0
2016-Jul-19 12:24N 43°35' E 007°08'0 0.0
2016-Jul-19 11:30N 43°35' E 007°08'0 0.0
2016-Jul-19 10:30N 43°35' E 007°08'0 0.0
2016-Jul-19 09:30N 43°35' E 007°08'0 0.0
2016-Jul-19 08:30N 43°35' E 007°08'0 0.0
2016-Jul-19 07:33N 43°35' E 007°08'0 0.0
2016-Jul-19 04:30N 43°35' E 007°08'0 0.0
2016-Jul-19 03:30N 43°35' E 007°08'0 0.0
2016-Jul-19 02:30N 43°35' E 007°08'0 0.0
2016-Jul-19 01:30N 43°35' E 007°08'0 0.0
2016-Jul-19 00:30N 43°35' E 007°08'0 0.0
2016-Jul-18 23:30N 43°35' E 007°08'0 0.0
2016-Jul-18 22:30N 43°35' E 007°08'0 0.0
2016-Jul-18 21:30N 43°35' E 007°08'0 0.0
2016-Jul-18 20:24N 43°35' E 007°08'0 0.0
2016-Jul-18 19:30N 43°35' E 007°08'0 0.0
2016-Jul-18 18:30N 43°35' E 007°08'0 0.0
2016-Jul-18 17:30N 43°35' E 007°08'0 0.0
2016-Jul-18 16:30N 43°35' E 007°08'0 0.0
2016-Jul-18 15:24N 43°35' E 007°08'0 0.0
2016-Jul-18 14:30N 43°35' E 007°08'0 0.0
2016-Jul-18 13:30N 43°35' E 007°08'0 0.0
2016-Jul-18 12:30N 43°35' E 007°08'0 0.0
2016-Jul-18 11:30N 43°35' E 007°08'0 0.0
2016-Jul-18 10:30N 43°35' E 007°08'0 0.0
2016-Jul-18 09:33N 43°35' E 007°08'0 0.0
2016-Jul-18 08:30N 43°35' E 007°08'0 0.0
2016-Jul-18 07:30N 43°35' E 007°08'0 0.3
2016-Jul-18 06:06N 43°35' E 007°08'0 0.0
2016-Jul-18 05:30N 43°35' E 007°08'0 0.0
2016-Jul-18 04:30N 43°35' E 007°08'0 0.0
2016-Jul-18 03:30N 43°35' E 007°08'0 0.0
2016-Jul-18 02:30N 43°35' E 007°08'0 0.0
2016-Jul-18 01:30N 43°35' E 007°08'0 0.0
2016-Jul-18 00:30N 43°35' E 007°08'0 0.0
2016-Jul-17 23:30N 43°35' E 007°08'0 0.0
2016-Jul-17 22:24N 43°35' E 007°08'0 0.0
2016-Jul-17 21:30N 43°35' E 007°08'0 0.0
2016-Jul-17 20:30N 43°35' E 007°08'0 0.0
2016-Jul-17 19:33N 43°35' E 007°08'1716.5
2016-Jul-17 18:31N 43°42' E 007°30'2222.5
2016-Jul-17 17:31N 43°49' E 007°59'2223.0
2016-Jul-17 16:33N 43°58' E 008°27'2322.8
2016-Jul-17 15:34N 44°09' E 008°55'16 2.6
2016-Jul-17 09:32N 44°19' E 009°13'0 0.0
2016-Jul-17 07:17N 44°19' E 009°13'0 0.0
2016-Jul-16 17:27N 44°18' E 009°13'0 0.4
2016-Jul-16 16:19N 44°19' E 009°13'0 0.0
2016-Jul-16 13:25N 44°19' E 009°13'0 0.0
2016-Jul-16 12:25N 44°19' E 009°13'3 3.4
2016-Jul-16 11:33N 44°17' E 009°16'2120.8
2016-Jul-16 10:34N 44°06' E 009°41'  
Track history (hours):
 
Tides and Currents Weather Stations Pressure Air Temp Water Temp Dewpoint Dewpoint Depression Visibility Wind Speed Wind Dir Waves Ship Positions

Destiny

Last reported at 2016-Jul-26 09:32 UTC. Time now 2016-Jul-30 11:06 UTC.
Position N 42°24' E 008°32'.

Length 37 m; draft 2.2 m.

Type: Pleasure craft. MMSI: 319864000.

Date/timePositionNaut miles runAvg speedWind from/ knotsBaromVisibWave heightAir tempDewpointWater temp
2016-Jul-26 09:32N 42°24' E 008°32'1413.9
2016-Jul-26 08:33N 42°35' E 008°42'45 2.7
2016-Jul-25 15:34N 43°09' E 008°01'2322.5
2016-Jul-25 14:33N 43°25' E 007°40'2221.9
2016-Jul-25 13:33N 43°41' E 007°19'1 0.7
2016-Jul-25 12:17N 43°42' E 007°19'0 0.0
2016-Jul-25 11:30N 43°42' E 007°19'1110.7
2016-Jul-25 10:30N 43°35' E 007°08'0 0.0
2016-Jul-25 09:30N 43°35' E 007°08'0 0.0
2016-Jul-25 08:30N 43°35' E 007°08'0 0.0
2016-Jul-25 07:24N 43°35' E 007°08'0 0.0
2016-Jul-25 06:30N 43°35' E 007°08'0 0.0
2016-Jul-25 05:24N 43°35' E 007°08'0 0.0
2016-Jul-25 04:30N 43°35' E 007°08'0 0.0
2016-Jul-25 03:30N 43°35' E 007°08'0 0.0
2016-Jul-25 02:30N 43°35' E 007°08'0 0.0
2016-Jul-25 01:30N 43°35' E 007°08'0 0.0
2016-Jul-25 00:30N 43°35' E 007°08'0 0.0
2016-Jul-24 23:30N 43°35' E 007°08'0 0.0
2016-Jul-24 22:30N 43°35' E 007°08'0 0.0
2016-Jul-24 21:30N 43°35' E 007°08'0 0.0
2016-Jul-24 20:30N 43°35' E 007°08'0 0.0
2016-Jul-24 19:30N 43°35' E 007°08'0 0.0
2016-Jul-24 18:30N 43°35' E 007°08'0 0.0
2016-Jul-24 17:30N 43°35' E 007°08'0 0.0
2016-Jul-24 16:30N 43°35' E 007°08'0 0.0
2016-Jul-24 15:30N 43°35' E 007°08'0 0.0
2016-Jul-24 14:30N 43°35' E 007°08'0 0.0
2016-Jul-24 13:24N 43°35' E 007°08'0 0.0
2016-Jul-24 12:30N 43°35' E 007°08'0 0.0
2016-Jul-24 11:18N 43°35' E 007°08'0 0.0
2016-Jul-24 10:30N 43°35' E 007°08'0 0.0
2016-Jul-24 09:24N 43°35' E 007°08'0 0.0
2016-Jul-24 08:30N 43°35' E 007°08'0 0.0
2016-Jul-24 07:24N 43°35' E 007°08'0 0.0
2016-Jul-24 06:30N 43°35' E 007°08'0 0.0
2016-Jul-24 05:30N 43°35' E 007°08'0 0.0
2016-Jul-24 04:30N 43°35' E 007°08'0 0.0
2016-Jul-24 03:30N 43°35' E 007°08'0 0.0
2016-Jul-24 02:30N 43°35' E 007°08'0 0.0
2016-Jul-24 01:30N 43°35' E 007°08'0 0.0
2016-Jul-24 00:30N 43°35' E 007°08'0 0.0
2016-Jul-23 23:30N 43°35' E 007°08'0 0.0
2016-Jul-23 22:30N 43°35' E 007°08'0 0.0
2016-Jul-23 21:30N 43°35' E 007°08'0 0.0
2016-Jul-23 20:30N 43°35' E 007°08'0 0.0
2016-Jul-23 19:24N 43°35' E 007°08'0 0.0
2016-Jul-23 18:30N 43°35' E 007°08'0 0.0
2016-Jul-23 17:30N 43°35' E 007°08'0 0.0
2016-Jul-23 16:33N 43°35' E 007°08'1110.5
2016-Jul-23 15:34N 43°42' E 007°19'0 0.1
2016-Jul-23 13:33N 43°42' E 007°19'0 0.0
2016-Jul-23 11:33N 43°42' E 007°19'0 0.1
2016-Jul-23 10:33N 43°42' E 007°19'0 0.0
2016-Jul-23 09:21N 43°42' E 007°19'0 0.0
2016-Jul-23 08:09N 43°42' E 007°19'0 0.0
2016-Jul-23 07:21N 43°42' E 007°19'0 0.0
2016-Jul-23 06:33N 43°42' E 007°19'0 0.0
2016-Jul-23 04:21N 43°42' E 007°19'0 0.0
2016-Jul-23 02:27N 43°42' E 007°19'0 0.0
2016-Jul-23 01:15N 43°42' E 007°19'0 0.0
2016-Jul-23 00:27N 43°42' E 007°19'0 0.0
2016-Jul-22 23:15N 43°42' E 007°19'0 0.0
2016-Jul-22 22:33N 43°42' E 007°19'0 0.0
2016-Jul-22 20:21N 43°42' E 007°19'0 0.0
2016-Jul-22 19:03N 43°42' E 007°19'0 0.0
2016-Jul-22 18:33N 43°42' E 007°19'0 0.0
2016-Jul-22 17:34N 43°42' E 007°19'1413.8
2016-Jul-22 16:33N 43°31' E 007°07'26 1.5
2016-Jul-21 23:32N 43°16' E 006°38'0 0.0
2016-Jul-21 22:20N 43°16' E 006°38'0 0.0
2016-Jul-21 21:08N 43°16' E 006°38'3 0.3
2016-Jul-21 11:24N 43°14' E 006°40'24 1.3
2016-Jul-20 16:33N 43°30' E 007°04'1010.1
2016-Jul-20 15:33N 43°39' E 007°10'8 8.1
2016-Jul-20 14:32N 43°43' E 007°21'0 0.0
2016-Jul-20 13:33N 43°43' E 007°21'0 0.0
2016-Jul-20 12:33N 43°43' E 007°21'0 0.0
2016-Jul-20 11:33N 43°43' E 007°21'6 5.9
2016-Jul-20 10:33N 43°38' E 007°15'6 5.7
2016-Jul-20 09:30N 43°35' E 007°08'0 0.0
2016-Jul-20 08:12N 43°35' E 007°08'0 0.0
2016-Jul-20 07:30N 43°35' E 007°08'0 0.0
2016-Jul-20 06:30N 43°35' E 007°08'0 0.0
2016-Jul-20 05:24N 43°35' E 007°08'0 0.0
2016-Jul-20 04:30N 43°35' E 007°08'0 0.0
2016-Jul-20 03:30N 43°35' E 007°08'0 0.0
2016-Jul-20 02:33N 43°35' E 007°08'0 0.0
2016-Jul-20 01:30N 43°35' E 007°08'0 0.0
2016-Jul-20 00:30N 43°35' E 007°08'0 0.0
2016-Jul-19 23:33N 43°35' E 007°08'0 0.0
2016-Jul-19 22:30N 43°35' E 007°08'0 0.0
2016-Jul-19 21:33N 43°35' E 007°08'0 0.0
2016-Jul-19 20:24N 43°35' E 007°08'0 0.0
2016-Jul-19 19:30N 43°35' E 007°08'0 0.0
2016-Jul-19 18:30N 43°35' E 007°08'0 0.0
2016-Jul-19 17:30N 43°35' E 007°08'0 0.0
2016-Jul-19 16:30N 43°35' E 007°08'0 0.0
2016-Jul-19 15:30N 43°35' E 007°08'0 0.0
2016-Jul-19 14:30N 43°35' E 007°08'0 0.0
2016-Jul-19 13:30N 43°35' E 007°08'0 0.0
2016-Jul-19 12:24N 43°35' E 007°08'0 0.0
2016-Jul-19 11:30N 43°35' E 007°08'0 0.0
2016-Jul-19 10:30N 43°35' E 007°08'0 0.0
2016-Jul-19 09:30N 43°35' E 007°08'0 0.0
2016-Jul-19 08:30N 43°35' E 007°08'0 0.0
2016-Jul-19 07:33N 43°35' E 007°08'0 0.0
2016-Jul-19 04:30N 43°35' E 007°08'0 0.0
2016-Jul-19 03:30N 43°35' E 007°08'0 0.0
2016-Jul-19 02:30N 43°35' E 007°08'0 0.0
2016-Jul-19 01:30N 43°35' E 007°08'0 0.0
2016-Jul-19 00:30N 43°35' E 007°08'0 0.0
2016-Jul-18 23:30N 43°35' E 007°08'0 0.0
2016-Jul-18 22:30N 43°35' E 007°08'0 0.0
2016-Jul-18 21:30N 43°35' E 007°08'0 0.0
2016-Jul-18 20:24N 43°35' E 007°08'0 0.0
2016-Jul-18 19:30N 43°35' E 007°08'0 0.0
2016-Jul-18 18:30N 43°35' E 007°08'0 0.0
2016-Jul-18 17:30N 43°35' E 007°08'0 0.0
2016-Jul-18 16:30N 43°35' E 007°08'0 0.0
2016-Jul-18 15:24N 43°35' E 007°08'0 0.0
2016-Jul-18 14:30N 43°35' E 007°08'0 0.0
2016-Jul-18 13:30N 43°35' E 007°08'0 0.0
2016-Jul-18 12:30N 43°35' E 007°08'0 0.0
2016-Jul-18 11:30N 43°35' E 007°08'0 0.0
2016-Jul-18 10:30N 43°35' E 007°08'0 0.0
2016-Jul-18 09:33N 43°35' E 007°08'0 0.0
2016-Jul-18 08:30N 43°35' E 007°08'0 0.0
2016-Jul-18 07:30N 43°35' E 007°08'0 0.3
2016-Jul-18 06:06N 43°35' E 007°08'0 0.0
2016-Jul-18 05:30N 43°35' E 007°08'0 0.0
2016-Jul-18 04:30N 43°35' E 007°08'0 0.0
2016-Jul-18 03:30N 43°35' E 007°08'0 0.0
2016-Jul-18 02:30N 43°35' E 007°08'0 0.0
2016-Jul-18 01:30N 43°35' E 007°08'0 0.0
2016-Jul-18 00:30N 43°35' E 007°08'0 0.0
2016-Jul-17 23:30N 43°35' E 007°08'0 0.0
2016-Jul-17 22:24N 43°35' E 007°08'0 0.0
2016-Jul-17 21:30N 43°35' E 007°08'0 0.0
2016-Jul-17 20:30N 43°35' E 007°08'0 0.0
2016-Jul-17 19:33N 43°35' E 007°08'1716.5
2016-Jul-17 18:31N 43°42' E 007°30'2222.5
2016-Jul-17 17:31N 43°49' E 007°59'2223.0
2016-Jul-17 16:33N 43°58' E 008°27'2322.8
2016-Jul-17 15:34N 44°09' E 008°55'16 2.6
2016-Jul-17 09:32N 44°19' E 009°13'0 0.0
2016-Jul-17 07:17N 44°19' E 009°13'0 0.0
2016-Jul-16 17:27N 44°18' E 009°13'0 0.4
2016-Jul-16 16:19N 44°19' E 009°13'0 0.0
2016-Jul-16 13:25N 44°19' E 009°13'0 0.0
2016-Jul-16 12:25N 44°19' E 009°13'3 3.4
2016-Jul-16 11:33N 44°17' E 009°16'2120.8
2016-Jul-16 10:34N 44°06' E 009°41'  

Dump ship's entire track history